Accueil
METAR-TAF:

METAR-TAF

Aéroports :

Aéroport de Paris-Le Bourget

Paris, France

latitude: 48-58N, longitude: 002-27E, altitude: 66 m

Observation

Le bulletin a été fait il y a 25 minutes, à 22:30 UTC
Vent 4 kt de nord/nord-ouest
Température 3°C
Humidité 70%
Pression 1021 hPa
Visibilité: 9000 m

METAR: LFPB 082230Z AUTO 34004KT 9000 NSC 03/M02 Q1021 NOSIG

Heure: 23:55 (22:55 UTC)

Prévision

Le bulletin a été fait il y a 5 heures et 55 minutes, à 17:00 UTC
Prévision valable du 08 à 18 UTC au 09 à 18 UTC
Vent 10 kt de nord/nord-est
Visibilité 10 km ou plus
pas de nuages en-dessous de 1500 mètres et pas de cumulonimbus.
Evoluant progressivement
du 09 à 06 UTC au 09 à 08 UTC
Vent 5 kt de ouest/nord-ouest

TAF: LFPB 081700Z 0818/0918 03010KT CAVOK BECMG 0906/0908 30005KT

Observations et prévisions météorologiques de plus de 4000 aéroports (messages METAR et TAF).

Les stations disponibles sont représentées par des disques jaunes et rouges sur la carte.

Passer la souris dessus pour voir le nom de la station.

Cliquer dessus pour voir les observations et prévisions météorologiques.

Pour changer de carte: cliquez sur les boutons verts avec une croix noire pour zoomer, sur le bouton vert avec un tiret pour effectuer un zoom arrière, ou sur les flèches vertes pour les cartes adjacentes.


METAR-TAF: